sensor_id;sensor_type;location;lat;lon;timestamp;temperature;humidity
62991;DHT22;49084;48.204;16.202;2022-12-05T00:01:38;4.40;99.90
62991;DHT22;49084;48.204;16.202;2022-12-05T00:04:07;4.40;99.90
62991;DHT22;49084;48.204;16.202;2022-12-05T00:06:35;4.40;99.90
62991;DHT22;49084;48.204;16.202;2022-12-05T00:09:02;4.40;99.90
62991;DHT22;49084;48.204;16.202;2022-12-05T00:11:30;4.50;99.90
62991;DHT22;49084;48.204;16.202;2022-12-05T00:13:57;4.50;99.90
62991;DHT22;49084;48.204;16.202;2022-12-05T00:16:25;4.40;99.90
62991;DHT22;49084;48.204;16.202;2022-12-05T00:18:51;4.40;99.90
62991;DHT22;49084;48.204;16.202;2022-12-05T00:21:19;4.40;99.90
62991;DHT22;49084;48.204;16.202;2022-12-05T00:23:46;4.40;99.90
62991;DHT22;49084;48.204;16.202;2022-12-05T00:26:12;4.40;99.90
62991;DHT22;49084;48.204;16.202;2022-12-05T00:28:38;4.40;99.90
62991;DHT22;49084;48.204;16.202;2022-12-05T00:31:10;4.40;99.90
62991;DHT22;49084;48.204;16.202;2022-12-05T00:33:37;4.40;99.90
62991;DHT22;49084;48.204;16.202;2022-12-05T00:36:08;4.40;99.90
62991;DHT22;49084;48.204;16.202;2022-12-05T00:38:34;4.40;99.90
62991;DHT22;49084;48.204;16.202;2022-12-05T00:41:08;4.40;99.90
62991;DHT22;49084;48.204;16.202;2022-12-05T00:43:34;4.40;99.90
62991;DHT22;49084;48.204;16.202;2022-12-05T00:46:08;4.40;99.90
62991;DHT22;49084;48.204;16.202;2022-12-05T00:48:35;4.40;99.90
62991;DHT22;49084;48.204;16.202;2022-12-05T00:51:10;4.40;99.90
62991;DHT22;49084;48.204;16.202;2022-12-05T00:53:36;4.40;99.90
62991;DHT22;49084;48.204;16.202;2022-12-05T00:56:04;4.40;99.90
62991;DHT22;49084;48.204;16.202;2022-12-05T00:58:31;4.40;99.90
62991;DHT22;49084;48.204;16.202;2022-12-05T01:01:03;4.40;99.90
62991;DHT22;49084;48.204;16.202;2022-12-05T01:03:29;4.40;99.90
62991;DHT22;49084;48.204;16.202;2022-12-05T01:05:55;4.40;99.90
62991;DHT22;49084;48.204;16.202;2022-12-05T01:08:22;4.40;99.90
62991;DHT22;49084;48.204;16.202;2022-12-05T01:10:56;4.30;99.90
62991;DHT22;49084;48.204;16.202;2022-12-05T01:13:23;4.30;99.90
62991;DHT22;49084;48.204;16.202;2022-12-05T01:15:49;4.30;99.90
62991;DHT22;49084;48.204;16.202;2022-12-05T01:18:15;4.40;99.90
62991;DHT22;49084;48.204;16.202;2022-12-05T01:20:41;4.40;99.90
62991;DHT22;49084;48.204;16.202;2022-12-05T01:23:07;4.30;99.90
62991;DHT22;49084;48.204;16.202;2022-12-05T01:25:33;4.30;99.90
62991;DHT22;49084;48.204;16.202;2022-12-05T01:27:59;4.30;99.90
62991;DHT22;49084;48.204;16.202;2022-12-05T01:30:25;4.40;99.90
62991;DHT22;49084;48.204;16.202;2022-12-05T01:32:50;4.30;99.90
62991;DHT22;49084;48.204;16.202;2022-12-05T01:35:16;4.40;99.90
62991;DHT22;49084;48.204;16.202;2022-12-05T01:37:42;4.30;99.90
62991;DHT22;49084;48.204;16.202;2022-12-05T01:40:08;4.40;99.90
62991;DHT22;49084;48.204;16.202;2022-12-05T01:42:34;4.40;99.90
62991;DHT22;49084;48.204;16.202;2022-12-05T01:45:06;4.40;99.90
62991;DHT22;49084;48.204;16.202;2022-12-05T01:47:36;4.40;99.90
62991;DHT22;49084;48.204;16.202;2022-12-05T01:50:03;4.40;99.90
62991;DHT22;49084;48.204;16.202;2022-12-05T01:52:30;4.40;99.90
62991;DHT22;49084;48.204;16.202;2022-12-05T01:55:02;4.40;99.90
62991;DHT22;49084;48.204;16.202;2022-12-05T01:57:29;4.40;99.90
62991;DHT22;49084;48.204;16.202;2022-12-05T01:59:59;4.40;99.90
62991;DHT22;49084;48.204;16.202;2022-12-05T02:02:27;4.40;99.90
62991;DHT22;49084;48.204;16.202;2022-12-05T02:05:30;4.40;99.90
62991;DHT22;49084;48.204;16.202;2022-12-05T02:07:48;4.40;99.90
62991;DHT22;49084;48.204;16.202;2022-12-05T02:10:14;4.40;99.90
62991;DHT22;49084;48.204;16.202;2022-12-05T02:12:41;4.40;99.90
62991;DHT22;49084;48.204;16.202;2022-12-05T02:24:07;4.40;99.90
62991;DHT22;49084;48.204;16.202;2022-12-05T02:29:55;4.40;99.90
62991;DHT22;49084;48.204;16.202;2022-12-05T02:40:38;4.40;99.90
62991;DHT22;49084;48.204;16.202;2022-12-05T02:43:15;4.40;99.90
62991;DHT22;49084;48.204;16.202;2022-12-05T02:45:44;4.40;99.90
62991;DHT22;49084;48.204;16.202;2022-12-05T02:48:13;4.40;99.90
62991;DHT22;49084;48.204;16.202;2022-12-05T02:50:41;4.40;99.90
62991;DHT22;49084;48.204;16.202;2022-12-05T02:53:10;4.40;99.90
62991;DHT22;49084;48.204;16.202;2022-12-05T02:55:37;4.40;99.90
62991;DHT22;49084;48.204;16.202;2022-12-05T02:58:10;4.40;99.90
62991;DHT22;49084;48.204;16.202;2022-12-05T03:00:39;4.30;99.90
62991;DHT22;49084;48.204;16.202;2022-12-05T03:03:13;4.30;99.90
62991;DHT22;49084;48.204;16.202;2022-12-05T03:05:53;4.30;99.90
62991;DHT22;49084;48.204;16.202;2022-12-05T03:08:37;4.30;99.90
62991;DHT22;49084;48.204;16.202;2022-12-05T03:11:05;4.30;99.90
62991;DHT22;49084;48.204;16.202;2022-12-05T03:13:37;4.30;99.90
62991;DHT22;49084;48.204;16.202;2022-12-05T03:16:11;4.20;99.90
62991;DHT22;49084;48.204;16.202;2022-12-05T03:19:03;4.20;99.90
62991;DHT22;49084;48.204;16.202;2022-12-05T03:21:33;4.20;99.90
62991;DHT22;49084;48.204;16.202;2022-12-05T03:24:09;4.30;99.90
62991;DHT22;49084;48.204;16.202;2022-12-05T03:32:20;4.20;99.90
62991;DHT22;49084;48.204;16.202;2022-12-05T03:46:20;4.10;99.90
62991;DHT22;49084;48.204;16.202;2022-12-05T03:49:11;4.10;99.90
62991;DHT22;49084;48.204;16.202;2022-12-05T03:51:48;4.10;99.90
62991;DHT22;49084;48.204;16.202;2022-12-05T03:54:23;4.10;99.90
62991;DHT22;49084;48.204;16.202;2022-12-05T03:56:58;4.10;99.90
62991;DHT22;49084;48.204;16.202;2022-12-05T04:02:00;4.10;99.90
62991;DHT22;49084;48.204;16.202;2022-12-05T04:04:38;4.10;99.90
62991;DHT22;49084;48.204;16.202;2022-12-05T04:07:09;4.00;99.90
62991;DHT22;49084;48.204;16.202;2022-12-05T04:09:49;4.00;99.90
62991;DHT22;49084;48.204;16.202;2022-12-05T04:12:22;4.10;99.90
62991;DHT22;49084;48.204;16.202;2022-12-05T04:14:59;4.00;99.90
62991;DHT22;49084;48.204;16.202;2022-12-05T04:18:14;4.00;99.90
62991;DHT22;49084;48.204;16.202;2022-12-05T04:23:17;4.00;99.90
62991;DHT22;49084;48.204;16.202;2022-12-05T04:26:09;4.00;99.90
62991;DHT22;49084;48.204;16.202;2022-12-05T04:28:57;4.00;99.90
62991;DHT22;49084;48.204;16.202;2022-12-05T04:31:34;4.00;99.90
62991;DHT22;49084;48.204;16.202;2022-12-05T04:34:05;4.00;99.90
62991;DHT22;49084;48.204;16.202;2022-12-05T04:36:39;3.90;99.90
62991;DHT22;49084;48.204;16.202;2022-12-05T04:39:10;4.00;99.90
62991;DHT22;49084;48.204;16.202;2022-12-05T04:41:40;3.90;99.90
62991;DHT22;49084;48.204;16.202;2022-12-05T04:44:10;3.90;99.90
62991;DHT22;49084;48.204;16.202;2022-12-05T04:46:39;3.90;99.90
62991;DHT22;49084;48.204;16.202;2022-12-05T04:49:08;3.90;99.90
62991;DHT22;49084;48.204;16.202;2022-12-05T04:51:36;3.90;99.90
62991;DHT22;49084;48.204;16.202;2022-12-05T04:54:28;3.90;99.90
62991;DHT22;49084;48.204;16.202;2022-12-05T04:57:21;3.90;99.90
62991;DHT22;49084;48.204;16.202;2022-12-05T04:59:45;3.90;99.90
62991;DHT22;49084;48.204;16.202;2022-12-05T05:02:14;3.90;99.90
62991;DHT22;49084;48.204;16.202;2022-12-05T05:04:47;3.90;99.90
62991;DHT22;49084;48.204;16.202;2022-12-05T05:07:16;3.90;99.90
62991;DHT22;49084;48.204;16.202;2022-12-05T05:09:42;3.90;99.90
62991;DHT22;49084;48.204;16.202;2022-12-05T05:12:08;3.90;99.90
62991;DHT22;49084;48.204;16.202;2022-12-05T05:14:34;3.90;99.90
62991;DHT22;49084;48.204;16.202;2022-12-05T05:17:00;3.90;99.90
62991;DHT22;49084;48.204;16.202;2022-12-05T05:19:26;3.90;99.90
62991;DHT22;49084;48.204;16.202;2022-12-05T05:21:52;3.90;99.90
62991;DHT22;49084;48.204;16.202;2022-12-05T05:24:18;3.90;99.90
62991;DHT22;49084;48.204;16.202;2022-12-05T05:26:46;3.90;99.90
62991;DHT22;49084;48.204;16.202;2022-12-05T05:29:13;3.90;99.90
62991;DHT22;49084;48.204;16.202;2022-12-05T05:31:39;3.90;99.90
62991;DHT22;49084;48.204;16.202;2022-12-05T05:34:06;3.90;99.90
62991;DHT22;49084;48.204;16.202;2022-12-05T05:36:33;3.90;99.90
62991;DHT22;49084;48.204;16.202;2022-12-05T05:38:59;3.90;99.90
62991;DHT22;49084;48.204;16.202;2022-12-05T05:41:29;3.90;99.90
62991;DHT22;49084;48.204;16.202;2022-12-05T05:43:55;3.80;99.90
62991;DHT22;49084;48.204;16.202;2022-12-05T05:46:27;3.90;99.90
62991;DHT22;49084;48.204;16.202;2022-12-05T05:48:53;3.90;99.90
62991;DHT22;49084;48.204;16.202;2022-12-05T05:51:20;3.90;99.90
62991;DHT22;49084;48.204;16.202;2022-12-05T05:53:47;3.80;99.90
62991;DHT22;49084;48.204;16.202;2022-12-05T05:56:15;3.80;99.90
62991;DHT22;49084;48.204;16.202;2022-12-05T05:58:42;3.80;99.90
62991;DHT22;49084;48.204;16.202;2022-12-05T06:01:10;3.80;99.90
62991;DHT22;49084;48.204;16.202;2022-12-05T06:03:36;3.80;99.90
62991;DHT22;49084;48.204;16.202;2022-12-05T06:06:05;3.80;99.90
62991;DHT22;49084;48.204;16.202;2022-12-05T06:08:34;3.80;99.90
62991;DHT22;49084;48.204;16.202;2022-12-05T06:11:05;3.80;99.90
62991;DHT22;49084;48.204;16.202;2022-12-05T06:13:32;3.90;99.90
62991;DHT22;49084;48.204;16.202;2022-12-05T06:15:58;3.90;99.90
62991;DHT22;49084;48.204;16.202;2022-12-05T06:18:26;3.80;99.90
62991;DHT22;49084;48.204;16.202;2022-12-05T06:20:58;3.90;99.90
62991;DHT22;49084;48.204;16.202;2022-12-05T06:23:25;3.80;99.90
62991;DHT22;49084;48.204;16.202;2022-12-05T06:25:55;3.80;99.90
62991;DHT22;49084;48.204;16.202;2022-12-05T06:28:23;3.90;99.90
62991;DHT22;49084;48.204;16.202;2022-12-05T06:30:49;3.90;99.90
62991;DHT22;49084;48.204;16.202;2022-12-05T06:33:15;3.90;99.90
62991;DHT22;49084;48.204;16.202;2022-12-05T06:35:41;3.90;99.90
62991;DHT22;49084;48.204;16.202;2022-12-05T06:38:08;3.80;99.90
62991;DHT22;49084;48.204;16.202;2022-12-05T06:40:34;3.80;99.90
62991;DHT22;49084;48.204;16.202;2022-12-05T06:42:59;3.90;99.90
62991;DHT22;49084;48.204;16.202;2022-12-05T06:45:25;3.80;99.90
62991;DHT22;49084;48.204;16.202;2022-12-05T06:47:51;3.80;99.90
62991;DHT22;49084;48.204;16.202;2022-12-05T06:50:18;3.90;99.90
62991;DHT22;49084;48.204;16.202;2022-12-05T06:52:43;3.90;99.90
62991;DHT22;49084;48.204;16.202;2022-12-05T06:55:09;3.90;99.90
62991;DHT22;49084;48.204;16.202;2022-12-05T06:57:35;3.80;99.90
62991;DHT22;49084;48.204;16.202;2022-12-05T07:00:01;3.80;99.90
62991;DHT22;49084;48.204;16.202;2022-12-05T07:02:45;3.80;99.90
62991;DHT22;49084;48.204;16.202;2022-12-05T07:05:11;3.80;99.90
62991;DHT22;49084;48.204;16.202;2022-12-05T07:07:37;3.90;99.90
62991;DHT22;49084;48.204;16.202;2022-12-05T07:10:04;3.90;99.90
62991;DHT22;49084;48.204;16.202;2022-12-05T07:12:31;3.90;99.90
62991;DHT22;49084;48.204;16.202;2022-12-05T07:14:58;4.00;99.90
62991;DHT22;49084;48.204;16.202;2022-12-05T07:17:24;4.00;99.90
62991;DHT22;49084;48.204;16.202;2022-12-05T07:19:51;3.90;99.90
62991;DHT22;49084;48.204;16.202;2022-12-05T07:22:18;4.00;99.90
62991;DHT22;49084;48.204;16.202;2022-12-05T07:24:45;4.00;99.90
62991;DHT22;49084;48.204;16.202;2022-12-05T07:27:12;4.00;99.90
62991;DHT22;49084;48.204;16.202;2022-12-05T07:29:38;4.00;99.90
62991;DHT22;49084;48.204;16.202;2022-12-05T07:32:04;4.00;99.90
62991;DHT22;49084;48.204;16.202;2022-12-05T07:34:30;4.10;99.90
62991;DHT22;49084;48.204;16.202;2022-12-05T07:36:56;4.10;99.90
62991;DHT22;49084;48.204;16.202;2022-12-05T07:39:21;4.10;99.90
62991;DHT22;49084;48.204;16.202;2022-12-05T07:41:47;4.10;99.90
62991;DHT22;49084;48.204;16.202;2022-12-05T07:44:13;4.10;99.90
62991;DHT22;49084;48.204;16.202;2022-12-05T07:46:39;4.10;99.90
62991;DHT22;49084;48.204;16.202;2022-12-05T07:49:06;4.10;99.90
62991;DHT22;49084;48.204;16.202;2022-12-05T07:51:32;4.10;99.90
62991;DHT22;49084;48.204;16.202;2022-12-05T07:53:58;4.10;99.90
62991;DHT22;49084;48.204;16.202;2022-12-05T07:56:25;4.10;99.90
62991;DHT22;49084;48.204;16.202;2022-12-05T07:58:51;4.10;99.90
62991;DHT22;49084;48.204;16.202;2022-12-05T08:01:25;4.10;99.90
62991;DHT22;49084;48.204;16.202;2022-12-05T08:03:52;4.10;99.90
62991;DHT22;49084;48.204;16.202;2022-12-05T08:06:21;4.10;99.90
62991;DHT22;49084;48.204;16.202;2022-12-05T08:08:47;4.20;99.90
62991;DHT22;49084;48.204;16.202;2022-12-05T08:13:46;4.20;99.90
62991;DHT22;49084;48.204;16.202;2022-12-05T08:16:17;4.20;99.90
62991;DHT22;49084;48.204;16.202;2022-12-05T08:18:43;4.10;99.90
62991;DHT22;49084;48.204;16.202;2022-12-05T08:21:15;4.20;99.90
62991;DHT22;49084;48.204;16.202;2022-12-05T08:23:42;4.20;99.90
62991;DHT22;49084;48.204;16.202;2022-12-05T08:26:09;4.20;99.90
62991;DHT22;49084;48.204;16.202;2022-12-05T08:28:35;4.20;99.90
62991;DHT22;49084;48.204;16.202;2022-12-05T08:31:09;4.20;99.90
62991;DHT22;49084;48.204;16.202;2022-12-05T08:33:35;4.20;99.90
62991;DHT22;49084;48.204;16.202;2022-12-05T08:36:03;4.20;99.90
62991;DHT22;49084;48.204;16.202;2022-12-05T08:38:29;4.20;99.90
62991;DHT22;49084;48.204;16.202;2022-12-05T08:40:55;4.10;99.90
62991;DHT22;49084;48.204;16.202;2022-12-05T08:43:21;4.10;99.90
62991;DHT22;49084;48.204;16.202;2022-12-05T08:45:51;4.00;99.90
62991;DHT22;49084;48.204;16.202;2022-12-05T08:48:17;4.00;99.90
62991;DHT22;49084;48.204;16.202;2022-12-05T08:50:43;4.10;99.90
62991;DHT22;49084;48.204;16.202;2022-12-05T08:53:09;4.10;99.90
62991;DHT22;49084;48.204;16.202;2022-12-05T08:55:35;4.10;99.90
62991;DHT22;49084;48.204;16.202;2022-12-05T08:58:01;4.10;99.90
62991;DHT22;49084;48.204;16.202;2022-12-05T09:00:26;4.10;99.90
62991;DHT22;49084;48.204;16.202;2022-12-05T09:02:52;4.20;99.90
62991;DHT22;49084;48.204;16.202;2022-12-05T09:05:18;4.20;99.90
62991;DHT22;49084;48.204;16.202;2022-12-05T09:07:44;4.30;99.90
62991;DHT22;49084;48.204;16.202;2022-12-05T09:10:09;4.30;99.90
62991;DHT22;49084;48.204;16.202;2022-12-05T09:12:36;4.20;99.90
62991;DHT22;49084;48.204;16.202;2022-12-05T09:15:03;4.30;99.90
62991;DHT22;49084;48.204;16.202;2022-12-05T09:17:30;4.30;99.90
62991;DHT22;49084;48.204;16.202;2022-12-05T09:19:55;4.30;99.90
62991;DHT22;49084;48.204;16.202;2022-12-05T09:22:21;4.30;99.90
62991;DHT22;49084;48.204;16.202;2022-12-05T09:24:47;4.40;99.90
62991;DHT22;49084;48.204;16.202;2022-12-05T09:27:13;4.40;99.90
62991;DHT22;49084;48.204;16.202;2022-12-05T09:29:39;4.40;99.90
62991;DHT22;49084;48.204;16.202;2022-12-05T09:32:05;4.50;99.90
62991;DHT22;49084;48.204;16.202;2022-12-05T09:34:30;4.50;99.90
62991;DHT22;49084;48.204;16.202;2022-12-05T09:36:56;4.40;99.90
62991;DHT22;49084;48.204;16.202;2022-12-05T09:39:23;4.40;99.90
62991;DHT22;49084;48.204;16.202;2022-12-05T09:50:32;4.60;99.90
62991;DHT22;49084;48.204;16.202;2022-12-05T09:55:50;4.50;99.90
62991;DHT22;49084;48.204;16.202;2022-12-05T09:58:27;4.50;99.90
62991;DHT22;49084;48.204;16.202;2022-12-05T10:15:46;4.50;99.90
62991;DHT22;49084;48.204;16.202;2022-12-05T10:21:02;4.50;99.90
62991;DHT22;49084;48.204;16.202;2022-12-05T10:23:55;4.50;99.90
62991;DHT22;49084;48.204;16.202;2022-12-05T10:26:26;4.50;99.90
62991;DHT22;49084;48.204;16.202;2022-12-05T10:31:37;4.50;99.90
62991;DHT22;49084;48.204;16.202;2022-12-05T10:34:11;4.50;99.90
62991;DHT22;49084;48.204;16.202;2022-12-05T10:36:43;4.50;99.90
62991;DHT22;49084;48.204;16.202;2022-12-05T10:39:11;4.50;99.90
62991;DHT22;49084;48.204;16.202;2022-12-05T10:41:37;4.50;99.90
62991;DHT22;49084;48.204;16.202;2022-12-05T10:44:04;4.50;99.90
62991;DHT22;49084;48.204;16.202;2022-12-05T10:46:30;4.50;99.90
62991;DHT22;49084;48.204;16.202;2022-12-05T10:48:55;4.50;99.90
62991;DHT22;49084;48.204;16.202;2022-12-05T10:51:26;4.50;99.90
62991;DHT22;49084;48.204;16.202;2022-12-05T10:53:52;4.50;99.90
62991;DHT22;49084;48.204;16.202;2022-12-05T10:56:41;4.60;99.90
62991;DHT22;49084;48.204;16.202;2022-12-05T10:59:09;4.60;99.90
62991;DHT22;49084;48.204;16.202;2022-12-05T11:01:37;4.60;99.90
62991;DHT22;49084;48.204;16.202;2022-12-05T11:04:19;4.70;99.90
62991;DHT22;49084;48.204;16.202;2022-12-05T11:06:54;4.70;99.90
62991;DHT22;49084;48.204;16.202;2022-12-05T11:09:24;4.70;99.90
62991;DHT22;49084;48.204;16.202;2022-12-05T11:17:36;4.80;99.90
62991;DHT22;49084;48.204;16.202;2022-12-05T11:22:41;4.80;99.90
62991;DHT22;49084;48.204;16.202;2022-12-05T11:27:55;4.80;99.90
62991;DHT22;49084;48.204;16.202;2022-12-05T11:30:24;4.80;99.90
62991;DHT22;49084;48.204;16.202;2022-12-05T11:33:31;4.80;99.90
62991;DHT22;49084;48.204;16.202;2022-12-05T11:36:06;4.90;99.90
62991;DHT22;49084;48.204;16.202;2022-12-05T11:38:34;4.90;99.90
62991;DHT22;49084;48.204;16.202;2022-12-05T11:41:32;4.90;99.90
62991;DHT22;49084;48.204;16.202;2022-12-05T11:44:37;5.00;99.90
62991;DHT22;49084;48.204;16.202;2022-12-05T11:47:18;5.00;99.90
62991;DHT22;49084;48.204;16.202;2022-12-05T12:28:26;4.90;99.90
62991;DHT22;49084;48.204;16.202;2022-12-05T12:37:22;4.80;99.90
62991;DHT22;49084;48.204;16.202;2022-12-05T12:42:59;4.80;99.90
62991;DHT22;49084;48.204;16.202;2022-12-05T12:45:32;4.80;99.90
62991;DHT22;49084;48.204;16.202;2022-12-05T12:50:56;4.90;99.90
62991;DHT22;49084;48.204;16.202;2022-12-05T12:59:01;5.00;99.90
62991;DHT22;49084;48.204;16.202;2022-12-05T13:04:24;4.90;99.90
62991;DHT22;49084;48.204;16.202;2022-12-05T13:06:55;4.90;99.90
62991;DHT22;49084;48.204;16.202;2022-12-05T13:09:29;4.90;99.90
62991;DHT22;49084;48.204;16.202;2022-12-05T13:12:01;4.90;99.90
62991;DHT22;49084;48.204;16.202;2022-12-05T13:14:30;4.90;99.90
62991;DHT22;49084;48.204;16.202;2022-12-05T13:16:57;4.90;99.90
62991;DHT22;49084;48.204;16.202;2022-12-05T13:19:41;4.90;99.90
62991;DHT22;49084;48.204;16.202;2022-12-05T13:22:08;4.80;99.90
62991;DHT22;49084;48.204;16.202;2022-12-05T13:24:34;4.90;99.90
62991;DHT22;49084;48.204;16.202;2022-12-05T13:27:13;4.90;99.90
62991;DHT22;49084;48.204;16.202;2022-12-05T13:29:51;4.90;99.90
62991;DHT22;49084;48.204;16.202;2022-12-05T13:32:30;4.90;99.90
62991;DHT22;49084;48.204;16.202;2022-12-05T13:35:28;5.50;99.90
62991;DHT22;49084;48.204;16.202;2022-12-05T13:38:39;5.00;99.90
62991;DHT22;49084;48.204;16.202;2022-12-05T13:41:56;4.90;99.90
62991;DHT22;49084;48.204;16.202;2022-12-05T13:51:01;5.00;99.90
62991;DHT22;49084;48.204;16.202;2022-12-05T14:00:50;4.90;99.90
62991;DHT22;49084;48.204;16.202;2022-12-05T14:03:53;4.90;99.90
62991;DHT22;49084;48.204;16.202;2022-12-05T14:06:03;4.90;99.90
62991;DHT22;49084;48.204;16.202;2022-12-05T14:15:52;4.80;99.90
62991;DHT22;49084;48.204;16.202;2022-12-05T14:18:47;4.60;99.90
62991;DHT22;49084;48.204;16.202;2022-12-05T14:32:09;4.20;99.90
62991;DHT22;49084;48.204;16.202;2022-12-05T14:40:49;4.00;99.90
62991;DHT22;49084;48.204;16.202;2022-12-05T14:42:53;4.00;99.90
62991;DHT22;49084;48.204;16.202;2022-12-05T14:45:33;4.00;99.90
62991;DHT22;49084;48.204;16.202;2022-12-05T14:48:05;4.00;99.90
62991;DHT22;49084;48.204;16.202;2022-12-05T14:50:49;3.90;99.90
62991;DHT22;49084;48.204;16.202;2022-12-05T14:59:35;3.80;99.90
62991;DHT22;49084;48.204;16.202;2022-12-05T15:02:04;3.90;99.90
62991;DHT22;49084;48.204;16.202;2022-12-05T15:04:37;3.80;99.90
62991;DHT22;49084;48.204;16.202;2022-12-05T15:07:11;3.80;99.90
62991;DHT22;49084;48.204;16.202;2022-12-05T15:12:35;3.90;99.90
62991;DHT22;49084;48.204;16.202;2022-12-05T15:23:56;3.80;99.90
62991;DHT22;49084;48.204;16.202;2022-12-05T15:32:18;3.80;99.90
62991;DHT22;49084;48.204;16.202;2022-12-05T15:36:59;3.80;99.90
62991;DHT22;49084;48.204;16.202;2022-12-05T15:39:27;3.90;99.90
62991;DHT22;49084;48.204;16.202;2022-12-05T15:41:54;3.90;99.90
62991;DHT22;49084;48.204;16.202;2022-12-05T15:44:22;3.90;99.90
62991;DHT22;49084;48.204;16.202;2022-12-05T15:46:52;3.90;99.90
62991;DHT22;49084;48.204;16.202;2022-12-05T15:49:24;4.00;99.90
62991;DHT22;49084;48.204;16.202;2022-12-05T15:51:54;4.00;99.90
62991;DHT22;49084;48.204;16.202;2022-12-05T15:54:31;4.00;99.90
62991;DHT22;49084;48.204;16.202;2022-12-05T15:57:03;4.00;99.90
62991;DHT22;49084;48.204;16.202;2022-12-05T15:59:55;4.10;99.90
62991;DHT22;49084;48.204;16.202;2022-12-05T16:02:45;4.00;99.90
62991;DHT22;49084;48.204;16.202;2022-12-05T16:05:27;4.10;99.90
62991;DHT22;49084;48.204;16.202;2022-12-05T16:07:54;4.10;99.90
62991;DHT22;49084;48.204;16.202;2022-12-05T16:10:21;4.10;99.90
62991;DHT22;49084;48.204;16.202;2022-12-05T16:12:49;4.10;99.90
62991;DHT22;49084;48.204;16.202;2022-12-05T16:17:54;4.20;99.90
62991;DHT22;49084;48.204;16.202;2022-12-05T16:20:27;4.20;99.90
62991;DHT22;49084;48.204;16.202;2022-12-05T16:22:57;4.20;99.90
62991;DHT22;49084;48.204;16.202;2022-12-05T16:25:31;4.20;99.90
62991;DHT22;49084;48.204;16.202;2022-12-05T16:28:19;4.20;99.90
62991;DHT22;49084;48.204;16.202;2022-12-05T16:31:12;4.20;99.90
62991;DHT22;49084;48.204;16.202;2022-12-05T16:33:41;4.20;99.90
62991;DHT22;49084;48.204;16.202;2022-12-05T16:36:08;4.30;99.90
62991;DHT22;49084;48.204;16.202;2022-12-05T16:38:35;4.30;99.90
62991;DHT22;49084;48.204;16.202;2022-12-05T16:41:04;4.30;99.90
62991;DHT22;49084;48.204;16.202;2022-12-05T16:48:38;4.20;99.90
62991;DHT22;49084;48.204;16.202;2022-12-05T16:53:47;4.20;99.90
62991;DHT22;49084;48.204;16.202;2022-12-05T16:56:34;4.20;99.90
62991;DHT22;49084;48.204;16.202;2022-12-05T16:59:04;4.20;99.90
62991;DHT22;49084;48.204;16.202;2022-12-05T17:01:31;4.20;99.90
62991;DHT22;49084;48.204;16.202;2022-12-05T17:03:58;4.10;99.90
62991;DHT22;49084;48.204;16.202;2022-12-05T17:06:25;4.20;99.90
62991;DHT22;49084;48.204;16.202;2022-12-05T17:08:52;4.10;99.90
62991;DHT22;49084;48.204;16.202;2022-12-05T17:11:24;4.10;99.90
62991;DHT22;49084;48.204;16.202;2022-12-05T17:13:55;4.20;99.90
62991;DHT22;49084;48.204;16.202;2022-12-05T17:16:22;4.10;99.90
62991;DHT22;49084;48.204;16.202;2022-12-05T17:18:48;4.20;99.90
62991;DHT22;49084;48.204;16.202;2022-12-05T17:21:16;4.20;99.90
62991;DHT22;49084;48.204;16.202;2022-12-05T17:23:44;4.20;99.90
62991;DHT22;49084;48.204;16.202;2022-12-05T17:26:14;4.30;99.90
62991;DHT22;49084;48.204;16.202;2022-12-05T17:28:40;4.30;99.90
62991;DHT22;49084;48.204;16.202;2022-12-05T17:31:11;4.30;99.90
62991;DHT22;49084;48.204;16.202;2022-12-05T17:33:50;4.20;99.90
62991;DHT22;49084;48.204;16.202;2022-12-05T17:36:16;4.30;99.90
62991;DHT22;49084;48.204;16.202;2022-12-05T17:38:42;4.30;99.90
62991;DHT22;49084;48.204;16.202;2022-12-05T17:41:17;4.30;99.90
62991;DHT22;49084;48.204;16.202;2022-12-05T17:43:44;4.30;99.90
62991;DHT22;49084;48.204;16.202;2022-12-05T17:46:14;4.30;99.90
62991;DHT22;49084;48.204;16.202;2022-12-05T17:48:40;4.30;99.90
62991;DHT22;49084;48.204;16.202;2022-12-05T17:51:08;4.20;99.90
62991;DHT22;49084;48.204;16.202;2022-12-05T17:53:37;4.30;99.90
62991;DHT22;49084;48.204;16.202;2022-12-05T17:56:04;4.20;99.90
62991;DHT22;49084;48.204;16.202;2022-12-05T17:58:30;4.30;99.90
62991;DHT22;49084;48.204;16.202;2022-12-05T18:00:57;4.30;99.90
62991;DHT22;49084;48.204;16.202;2022-12-05T18:03:23;4.30;99.90
62991;DHT22;49084;48.204;16.202;2022-12-05T18:05:49;4.30;99.90
62991;DHT22;49084;48.204;16.202;2022-12-05T18:08:15;4.30;99.90
62991;DHT22;49084;48.204;16.202;2022-12-05T18:10:43;4.30;99.90
62991;DHT22;49084;48.204;16.202;2022-12-05T18:13:11;4.30;99.90
62991;DHT22;49084;48.204;16.202;2022-12-05T18:15:37;4.30;99.90
62991;DHT22;49084;48.204;16.202;2022-12-05T18:18:03;4.20;99.90
62991;DHT22;49084;48.204;16.202;2022-12-05T18:20:31;4.20;99.90
62991;DHT22;49084;48.204;16.202;2022-12-05T18:22:58;4.30;99.90
62991;DHT22;49084;48.204;16.202;2022-12-05T18:25:24;4.20;99.90
62991;DHT22;49084;48.204;16.202;2022-12-05T18:27:50;4.20;99.90
62991;DHT22;49084;48.204;16.202;2022-12-05T18:30:16;4.20;99.90
62991;DHT22;49084;48.204;16.202;2022-12-05T18:32:42;4.20;99.90
62991;DHT22;49084;48.204;16.202;2022-12-05T18:35:08;4.20;99.90
62991;DHT22;49084;48.204;16.202;2022-12-05T18:37:38;4.20;99.90
62991;DHT22;49084;48.204;16.202;2022-12-05T18:40:05;4.10;99.90
62991;DHT22;49084;48.204;16.202;2022-12-05T18:42:31;4.20;99.90
62991;DHT22;49084;48.204;16.202;2022-12-05T18:44:59;4.10;99.90
62991;DHT22;49084;48.204;16.202;2022-12-05T18:47:25;4.20;99.90
62991;DHT22;49084;48.204;16.202;2022-12-05T18:49:51;4.20;99.90
62991;DHT22;49084;48.204;16.202;2022-12-05T18:52:17;4.20;99.90
62991;DHT22;49084;48.204;16.202;2022-12-05T18:54:43;4.20;99.90
62991;DHT22;49084;48.204;16.202;2022-12-05T18:57:09;4.20;99.90
62991;DHT22;49084;48.204;16.202;2022-12-05T18:59:35;4.20;99.90
62991;DHT22;49084;48.204;16.202;2022-12-05T19:02:01;4.20;99.90
62991;DHT22;49084;48.204;16.202;2022-12-05T19:04:29;4.20;99.90
62991;DHT22;49084;48.204;16.202;2022-12-05T19:06:57;4.20;99.90
62991;DHT22;49084;48.204;16.202;2022-12-05T19:09:29;4.20;99.90
62991;DHT22;49084;48.204;16.202;2022-12-05T19:11:57;4.20;99.90
62991;DHT22;49084;48.204;16.202;2022-12-05T19:14:24;4.20;99.90
62991;DHT22;49084;48.204;16.202;2022-12-05T19:16:52;4.30;99.90
62991;DHT22;49084;48.204;16.202;2022-12-05T19:19:18;4.30;99.90
62991;DHT22;49084;48.204;16.202;2022-12-05T19:21:45;4.30;99.90
62991;DHT22;49084;48.204;16.202;2022-12-05T19:24:16;4.20;99.90
62991;DHT22;49084;48.204;16.202;2022-12-05T19:26:43;4.20;99.90
62991;DHT22;49084;48.204;16.202;2022-12-05T19:29:13;4.20;99.90
62991;DHT22;49084;48.204;16.202;2022-12-05T19:31:40;4.20;99.90